sensor_id;sensor_type;location;lat;lon;timestamp;temperature;humidity
27200;DHT22;14714;48.106;11.546;2023-09-08T00:01:04;13.40;99.90
27200;DHT22;14714;48.106;11.546;2023-09-08T00:03:33;13.40;99.90
27200;DHT22;14714;48.106;11.546;2023-09-08T00:06:02;13.30;99.90
27200;DHT22;14714;48.106;11.546;2023-09-08T00:08:33;13.30;99.90
27200;DHT22;14714;48.106;11.546;2023-09-08T00:11:01;13.20;99.90
27200;DHT22;14714;48.106;11.546;2023-09-08T00:13:30;13.20;99.90
27200;DHT22;14714;48.106;11.546;2023-09-08T00:15:59;13.20;99.90
27200;DHT22;14714;48.106;11.546;2023-09-08T00:18:30;13.10;99.90
27200;DHT22;14714;48.106;11.546;2023-09-08T00:20:59;13.10;99.90
27200;DHT22;14714;48.106;11.546;2023-09-08T00:23:30;13.10;99.90
27200;DHT22;14714;48.106;11.546;2023-09-08T00:26:00;13.10;99.90
27200;DHT22;14714;48.106;11.546;2023-09-08T00:28:30;13.10;99.90
27200;DHT22;14714;48.106;11.546;2023-09-08T00:31:02;13.10;99.90
27200;DHT22;14714;48.106;11.546;2023-09-08T00:33:31;13.10;99.90
27200;DHT22;14714;48.106;11.546;2023-09-08T00:35:59;13.00;99.90
27200;DHT22;14714;48.106;11.546;2023-09-08T00:38:28;13.00;99.90
27200;DHT22;14714;48.106;11.546;2023-09-08T00:40:56;13.00;99.90
27200;DHT22;14714;48.106;11.546;2023-09-08T00:43:25;13.00;99.90
27200;DHT22;14714;48.106;11.546;2023-09-08T00:45:54;13.00;99.90
27200;DHT22;14714;48.106;11.546;2023-09-08T00:48:24;12.90;99.90
27200;DHT22;14714;48.106;11.546;2023-09-08T00:50:56;12.90;99.90
27200;DHT22;14714;48.106;11.546;2023-09-08T00:53:25;12.90;99.90
27200;DHT22;14714;48.106;11.546;2023-09-08T00:55:56;12.90;99.90
27200;DHT22;14714;48.106;11.546;2023-09-08T00:58:27;12.80;99.90
27200;DHT22;14714;48.106;11.546;2023-09-08T01:00:59;12.80;99.90
27200;DHT22;14714;48.106;11.546;2023-09-08T01:03:28;12.80;99.90
27200;DHT22;14714;48.106;11.546;2023-09-08T01:05:57;12.80;99.90
27200;DHT22;14714;48.106;11.546;2023-09-08T01:08:33;12.80;99.90
27200;DHT22;14714;48.106;11.546;2023-09-08T01:11:03;12.80;99.90
27200;DHT22;14714;48.106;11.546;2023-09-08T01:13:32;12.80;99.90
27200;DHT22;14714;48.106;11.546;2023-09-08T01:16:01;12.80;99.90
27200;DHT22;14714;48.106;11.546;2023-09-08T01:18:31;12.70;99.90
27200;DHT22;14714;48.106;11.546;2023-09-08T01:26:39;12.70;99.90
27200;DHT22;14714;48.106;11.546;2023-09-08T01:29:10;12.60;99.90
27200;DHT22;14714;48.106;11.546;2023-09-08T01:31:39;12.60;99.90
27200;DHT22;14714;48.106;11.546;2023-09-08T01:34:08;12.60;99.90
27200;DHT22;14714;48.106;11.546;2023-09-08T01:36:38;12.60;99.90
27200;DHT22;14714;48.106;11.546;2023-09-08T01:39:07;12.50;99.90
27200;DHT22;14714;48.106;11.546;2023-09-08T01:41:37;12.50;99.90
27200;DHT22;14714;48.106;11.546;2023-09-08T01:44:06;12.50;99.90
27200;DHT22;14714;48.106;11.546;2023-09-08T01:46:38;12.50;99.90
27200;DHT22;14714;48.106;11.546;2023-09-08T01:49:09;12.50;99.90
27200;DHT22;14714;48.106;11.546;2023-09-08T01:51:38;12.50;99.90
27200;DHT22;14714;48.106;11.546;2023-09-08T01:54:07;12.40;99.90
27200;DHT22;14714;48.106;11.546;2023-09-08T01:56:39;12.40;99.90
27200;DHT22;14714;48.106;11.546;2023-09-08T01:59:08;12.40;99.90
27200;DHT22;14714;48.106;11.546;2023-09-08T02:01:39;12.40;99.90
27200;DHT22;14714;48.106;11.546;2023-09-08T02:04:09;12.40;99.90
27200;DHT22;14714;48.106;11.546;2023-09-08T02:06:37;12.30;99.90
27200;DHT22;14714;48.106;11.546;2023-09-08T02:09:08;12.30;99.90
27200;DHT22;14714;48.106;11.546;2023-09-08T02:11:41;12.30;99.90
27200;DHT22;14714;48.106;11.546;2023-09-08T02:14:10;12.30;99.90
27200;DHT22;14714;48.106;11.546;2023-09-08T02:16:39;12.30;99.90
27200;DHT22;14714;48.106;11.546;2023-09-08T02:19:11;12.20;99.90
27200;DHT22;14714;48.106;11.546;2023-09-08T02:21:40;12.20;99.90
27200;DHT22;14714;48.106;11.546;2023-09-08T02:24:09;12.20;99.90
27200;DHT22;14714;48.106;11.546;2023-09-08T02:26:38;12.20;99.90
27200;DHT22;14714;48.106;11.546;2023-09-08T02:29:07;12.10;99.90
27200;DHT22;14714;48.106;11.546;2023-09-08T02:31:36;12.20;99.90
27200;DHT22;14714;48.106;11.546;2023-09-08T02:34:04;12.10;99.90
27200;DHT22;14714;48.106;11.546;2023-09-08T02:36:36;12.10;99.90
27200;DHT22;14714;48.106;11.546;2023-09-08T02:39:06;12.10;99.90
27200;DHT22;14714;48.106;11.546;2023-09-08T02:41:36;12.10;99.90
27200;DHT22;14714;48.106;11.546;2023-09-08T02:44:05;12.10;99.90
27200;DHT22;14714;48.106;11.546;2023-09-08T02:46:34;12.10;99.90
27200;DHT22;14714;48.106;11.546;2023-09-08T02:49:03;12.10;99.90
27200;DHT22;14714;48.106;11.546;2023-09-08T02:51:32;12.10;99.90
27200;DHT22;14714;48.106;11.546;2023-09-08T02:54:01;12.00;99.90
27200;DHT22;14714;48.106;11.546;2023-09-08T02:56:31;12.00;99.90
27200;DHT22;14714;48.106;11.546;2023-09-08T02:59:04;12.00;99.90
27200;DHT22;14714;48.106;11.546;2023-09-08T03:01:33;12.00;99.90
27200;DHT22;14714;48.106;11.546;2023-09-08T03:04:02;11.90;99.90
27200;DHT22;14714;48.106;11.546;2023-09-08T03:06:31;11.90;99.90
27200;DHT22;14714;48.106;11.546;2023-09-08T03:09:02;11.90;99.90
27200;DHT22;14714;48.106;11.546;2023-09-08T03:11:31;11.90;99.90
27200;DHT22;14714;48.106;11.546;2023-09-08T03:14:02;11.90;99.90
27200;DHT22;14714;48.106;11.546;2023-09-08T03:16:32;11.90;99.90
27200;DHT22;14714;48.106;11.546;2023-09-08T03:19:03;11.90;99.90
27200;DHT22;14714;48.106;11.546;2023-09-08T03:21:34;11.90;99.90
27200;DHT22;14714;48.106;11.546;2023-09-08T03:24:07;11.80;99.90
27200;DHT22;14714;48.106;11.546;2023-09-08T03:26:38;11.80;99.90
27200;DHT22;14714;48.106;11.546;2023-09-08T03:29:08;11.80;99.90
27200;DHT22;14714;48.106;11.546;2023-09-08T03:31:37;11.80;99.90
27200;DHT22;14714;48.106;11.546;2023-09-08T03:34:07;11.80;99.90
27200;DHT22;14714;48.106;11.546;2023-09-08T03:36:36;11.80;99.90
27200;DHT22;14714;48.106;11.546;2023-09-08T03:39:07;11.80;99.90
27200;DHT22;14714;48.106;11.546;2023-09-08T03:41:37;11.80;99.90
27200;DHT22;14714;48.106;11.546;2023-09-08T03:44:05;11.80;99.90
27200;DHT22;14714;48.106;11.546;2023-09-08T03:46:40;11.80;99.90
27200;DHT22;14714;48.106;11.546;2023-09-08T03:49:09;11.80;99.90
27200;DHT22;14714;48.106;11.546;2023-09-08T03:51:39;11.80;99.90
27200;DHT22;14714;48.106;11.546;2023-09-08T03:54:07;11.80;99.90
27200;DHT22;14714;48.106;11.546;2023-09-08T03:56:36;11.70;99.90
27200;DHT22;14714;48.106;11.546;2023-09-08T03:59:05;11.70;99.90
27200;DHT22;14714;48.106;11.546;2023-09-08T04:01:35;11.70;99.90
27200;DHT22;14714;48.106;11.546;2023-09-08T04:04:04;11.70;99.90
27200;DHT22;14714;48.106;11.546;2023-09-08T04:06:34;11.70;99.90
27200;DHT22;14714;48.106;11.546;2023-09-08T04:09:03;11.60;99.90
27200;DHT22;14714;48.106;11.546;2023-09-08T04:11:32;11.60;99.90
27200;DHT22;14714;48.106;11.546;2023-09-08T04:14:01;11.60;99.90
27200;DHT22;14714;48.106;11.546;2023-09-08T04:16:30;11.60;99.90
27200;DHT22;14714;48.106;11.546;2023-09-08T04:18:59;11.60;99.90
27200;DHT22;14714;48.106;11.546;2023-09-08T04:21:27;11.60;99.90
27200;DHT22;14714;48.106;11.546;2023-09-08T04:23:56;11.60;99.90
27200;DHT22;14714;48.106;11.546;2023-09-08T04:26:25;11.60;99.90
27200;DHT22;14714;48.106;11.546;2023-09-08T04:28:55;11.60;99.90
27200;DHT22;14714;48.106;11.546;2023-09-08T04:31:25;11.60;99.90
27200;DHT22;14714;48.106;11.546;2023-09-08T04:33:55;11.60;99.90
27200;DHT22;14714;48.106;11.546;2023-09-08T04:36:27;11.60;99.90
27200;DHT22;14714;48.106;11.546;2023-09-08T04:38:56;11.60;99.90
27200;DHT22;14714;48.106;11.546;2023-09-08T04:41:24;11.60;99.90
27200;DHT22;14714;48.106;11.546;2023-09-08T04:43:54;11.60;99.90
27200;DHT22;14714;48.106;11.546;2023-09-08T04:46:25;11.60;99.90
27200;DHT22;14714;48.106;11.546;2023-09-08T04:48:54;11.60;99.90
27200;DHT22;14714;48.106;11.546;2023-09-08T04:51:23;11.50;99.90
27200;DHT22;14714;48.106;11.546;2023-09-08T04:53:54;11.50;99.90
27200;DHT22;14714;48.106;11.546;2023-09-08T04:56:26;11.50;99.90
27200;DHT22;14714;48.106;11.546;2023-09-08T04:58:56;11.60;99.90
27200;DHT22;14714;48.106;11.546;2023-09-08T05:01:29;11.60;99.90
27200;DHT22;14714;48.106;11.546;2023-09-08T05:04:00;11.60;99.90
27200;DHT22;14714;48.106;11.546;2023-09-08T05:06:29;11.50;99.90
27200;DHT22;14714;48.106;11.546;2023-09-08T05:09:02;11.60;99.90
27200;DHT22;14714;48.106;11.546;2023-09-08T05:11:34;11.60;99.90
27200;DHT22;14714;48.106;11.546;2023-09-08T05:14:04;11.70;99.90
27200;DHT22;14714;48.106;11.546;2023-09-08T05:16:32;11.70;99.90
27200;DHT22;14714;48.106;11.546;2023-09-08T05:19:13;11.80;99.90
27200;DHT22;14714;48.106;11.546;2023-09-08T05:21:42;11.80;99.90
27200;DHT22;14714;48.106;11.546;2023-09-08T05:24:29;11.90;99.90
27200;DHT22;14714;48.106;11.546;2023-09-08T05:27:04;11.90;99.90
27200;DHT22;14714;48.106;11.546;2023-09-08T05:30:01;12.00;99.90
27200;DHT22;14714;48.106;11.546;2023-09-08T05:32:31;12.00;99.90
27200;DHT22;14714;48.106;11.546;2023-09-08T05:35:01;12.10;99.90
27200;DHT22;14714;48.106;11.546;2023-09-08T05:37:36;12.20;99.90
27200;DHT22;14714;48.106;11.546;2023-09-08T05:40:13;12.30;99.90
27200;DHT22;14714;48.106;11.546;2023-09-08T05:42:59;12.40;99.90
27200;DHT22;14714;48.106;11.546;2023-09-08T05:45:32;12.60;99.90
27200;DHT22;14714;48.106;11.546;2023-09-08T05:48:07;13.50;99.90
27200;DHT22;14714;48.106;11.546;2023-09-08T05:50:40;15.20;99.90
27200;DHT22;14714;48.106;11.546;2023-09-08T05:53:17;17.00;99.90
27200;DHT22;14714;48.106;11.546;2023-09-08T05:55:56;18.30;99.90
27200;DHT22;14714;48.106;11.546;2023-09-08T05:58:51;19.70;99.90
27200;DHT22;14714;48.106;11.546;2023-09-08T06:01:22;20.60;99.90
27200;DHT22;14714;48.106;11.546;2023-09-08T06:04:16;20.30;99.90
27200;DHT22;14714;48.106;11.546;2023-09-08T06:06:54;19.70;99.90
27200;DHT22;14714;48.106;11.546;2023-09-08T06:09:23;19.10;99.90
27200;DHT22;14714;48.106;11.546;2023-09-08T06:11:59;18.60;99.90
27200;DHT22;14714;48.106;11.546;2023-09-08T06:14:37;18.20;99.90
27200;DHT22;14714;48.106;11.546;2023-09-08T06:17:10;17.80;99.90
27200;DHT22;14714;48.106;11.546;2023-09-08T06:19:41;17.50;99.90
27200;DHT22;14714;48.106;11.546;2023-09-08T06:22:09;17.30;99.90
27200;DHT22;14714;48.106;11.546;2023-09-08T06:24:40;17.20;99.90
27200;DHT22;14714;48.106;11.546;2023-09-08T06:27:10;17.50;99.90
27200;DHT22;14714;48.106;11.546;2023-09-08T06:29:40;18.60;99.90
27200;DHT22;14714;48.106;11.546;2023-09-08T06:32:11;20.30;99.90
27200;DHT22;14714;48.106;11.546;2023-09-08T06:34:41;22.20;99.90
27200;DHT22;14714;48.106;11.546;2023-09-08T06:37:10;24.30;99.90
27200;DHT22;14714;48.106;11.546;2023-09-08T06:39:40;26.30;99.90
27200;DHT22;14714;48.106;11.546;2023-09-08T06:42:11;28.20;95.50
27200;DHT22;14714;48.106;11.546;2023-09-08T06:44:41;30.00;85.10
27200;DHT22;14714;48.106;11.546;2023-09-08T06:47:13;31.60;72.50
27200;DHT22;14714;48.106;11.546;2023-09-08T06:49:42;33.10;63.20
27200;DHT22;14714;48.106;11.546;2023-09-08T06:52:10;34.30;57.30
27200;DHT22;14714;48.106;11.546;2023-09-08T06:54:39;35.50;53.00
27200;DHT22;14714;48.106;11.546;2023-09-08T06:57:08;36.40;49.60
27200;DHT22;14714;48.106;11.546;2023-09-08T06:59:38;37.30;47.60
27200;DHT22;14714;48.106;11.546;2023-09-08T07:02:07;38.10;45.30
27200;DHT22;14714;48.106;11.546;2023-09-08T07:04:36;38.80;43.90
27200;DHT22;14714;48.106;11.546;2023-09-08T07:07:04;39.50;42.10
27200;DHT22;14714;48.106;11.546;2023-09-08T07:09:36;40.10;39.60
27200;DHT22;14714;48.106;11.546;2023-09-08T07:12:05;40.70;38.30
27200;DHT22;14714;48.106;11.546;2023-09-08T07:14:34;41.20;37.00
27200;DHT22;14714;48.106;11.546;2023-09-08T07:17:03;41.50;35.80
27200;DHT22;14714;48.106;11.546;2023-09-08T07:19:31;41.80;35.60
27200;DHT22;14714;48.106;11.546;2023-09-08T07:22:00;42.10;34.80
27200;DHT22;14714;48.106;11.546;2023-09-08T07:24:30;42.20;34.50
27200;DHT22;14714;48.106;11.546;2023-09-08T07:27:00;42.50;34.10
27200;DHT22;14714;48.106;11.546;2023-09-08T07:29:28;42.70;33.40
27200;DHT22;14714;48.106;11.546;2023-09-08T07:31:57;43.00;33.30
27200;DHT22;14714;48.106;11.546;2023-09-08T07:34:26;43.20;33.40
27200;DHT22;14714;48.106;11.546;2023-09-08T07:36:55;43.50;32.40
27200;DHT22;14714;48.106;11.546;2023-09-08T07:39:24;43.80;32.10
27200;DHT22;14714;48.106;11.546;2023-09-08T07:41:56;44.00;31.40
27200;DHT22;14714;48.106;11.546;2023-09-08T07:44:27;44.20;30.90
27200;DHT22;14714;48.106;11.546;2023-09-08T07:46:57;44.30;31.00
27200;DHT22;14714;48.106;11.546;2023-09-08T07:49:28;44.50;30.80
27200;DHT22;14714;48.106;11.546;2023-09-08T07:51:57;44.70;30.70
27200;DHT22;14714;48.106;11.546;2023-09-08T07:54:26;44.90;30.00
27200;DHT22;14714;48.106;11.546;2023-09-08T07:56:55;45.10;29.50
27200;DHT22;14714;48.106;11.546;2023-09-08T07:59:25;45.20;30.00
27200;DHT22;14714;48.106;11.546;2023-09-08T08:01:54;45.30;29.70
27200;DHT22;14714;48.106;11.546;2023-09-08T08:04:23;45.30;28.70
27200;DHT22;14714;48.106;11.546;2023-09-08T08:06:52;45.30;29.00
27200;DHT22;14714;48.106;11.546;2023-09-08T08:09:22;45.30;28.90
27200;DHT22;14714;48.106;11.546;2023-09-08T08:11:51;45.10;29.50
27200;DHT22;14714;48.106;11.546;2023-09-08T08:14:19;44.90;29.10
27200;DHT22;14714;48.106;11.546;2023-09-08T08:16:48;44.60;29.50
27200;DHT22;14714;48.106;11.546;2023-09-08T08:19:17;44.60;30.20
27200;DHT22;14714;48.106;11.546;2023-09-08T08:21:49;44.90;30.10
27200;DHT22;14714;48.106;11.546;2023-09-08T08:24:19;45.10;29.50
27200;DHT22;14714;48.106;11.546;2023-09-08T08:26:48;45.30;29.20
27200;DHT22;14714;48.106;11.546;2023-09-08T08:29:23;45.50;29.20
27200;DHT22;14714;48.106;11.546;2023-09-08T08:31:52;45.40;28.90
27200;DHT22;14714;48.106;11.546;2023-09-08T08:34:20;45.00;28.60
27200;DHT22;14714;48.106;11.546;2023-09-08T08:36:50;44.80;30.00
27200;DHT22;14714;48.106;11.546;2023-09-08T08:39:19;44.80;29.70
27200;DHT22;14714;48.106;11.546;2023-09-08T08:41:48;44.80;29.80
27200;DHT22;14714;48.106;11.546;2023-09-08T08:44:20;44.70;29.60
27200;DHT22;14714;48.106;11.546;2023-09-08T08:46:51;44.60;29.70
27200;DHT22;14714;48.106;11.546;2023-09-08T08:49:22;44.70;29.80
27200;DHT22;14714;48.106;11.546;2023-09-08T08:51:52;44.80;29.50
27200;DHT22;14714;48.106;11.546;2023-09-08T08:54:24;44.70;29.50
27200;DHT22;14714;48.106;11.546;2023-09-08T08:56:53;44.60;30.00
27200;DHT22;14714;48.106;11.546;2023-09-08T08:59:25;44.70;29.70
27200;DHT22;14714;48.106;11.546;2023-09-08T09:01:58;44.70;29.80
27200;DHT22;14714;48.106;11.546;2023-09-08T09:04:28;44.70;29.50
27200;DHT22;14714;48.106;11.546;2023-09-08T09:06:59;44.10;31.20
27200;DHT22;14714;48.106;11.546;2023-09-08T09:09:28;43.50;31.20
27200;DHT22;14714;48.106;11.546;2023-09-08T09:11:57;43.40;31.60
27200;DHT22;14714;48.106;11.546;2023-09-08T09:14:26;43.50;31.40
27200;DHT22;14714;48.106;11.546;2023-09-08T09:16:58;43.20;31.30
27200;DHT22;14714;48.106;11.546;2023-09-08T09:19:30;42.80;31.90
27200;DHT22;14714;48.106;11.546;2023-09-08T09:21:59;42.70;32.20
27200;DHT22;14714;48.106;11.546;2023-09-08T09:24:48;43.00;33.00
27200;DHT22;14714;48.106;11.546;2023-09-08T09:27:17;43.20;31.70
27200;DHT22;14714;48.106;11.546;2023-09-08T09:29:47;43.10;32.20
27200;DHT22;14714;48.106;11.546;2023-09-08T09:32:16;43.20;31.60
27200;DHT22;14714;48.106;11.546;2023-09-08T09:34:53;43.20;32.10
27200;DHT22;14714;48.106;11.546;2023-09-08T09:37:21;43.30;31.90
27200;DHT22;14714;48.106;11.546;2023-09-08T09:39:50;43.50;31.60
27200;DHT22;14714;48.106;11.546;2023-09-08T09:42:19;43.30;31.30
27200;DHT22;14714;48.106;11.546;2023-09-08T09:44:48;42.90;31.70
27200;DHT22;14714;48.106;11.546;2023-09-08T09:47:17;42.70;32.00
27200;DHT22;14714;48.106;11.546;2023-09-08T09:49:46;42.70;31.70
27200;DHT22;14714;48.106;11.546;2023-09-08T09:52:24;42.70;32.40
27200;DHT22;14714;48.106;11.546;2023-09-08T09:54:55;42.20;33.10
27200;DHT22;14714;48.106;11.546;2023-09-08T09:57:26;42.00;34.10
27200;DHT22;14714;48.106;11.546;2023-09-08T09:59:54;42.00;33.90
27200;DHT22;14714;48.106;11.546;2023-09-08T10:02:24;42.20;33.60
27200;DHT22;14714;48.106;11.546;2023-09-08T10:04:53;42.40;34.10
27200;DHT22;14714;48.106;11.546;2023-09-08T10:07:22;42.30;32.30
27200;DHT22;14714;48.106;11.546;2023-09-08T10:09:50;41.60;33.20
27200;DHT22;14714;48.106;11.546;2023-09-08T10:12:19;40.90;34.30
27200;DHT22;14714;48.106;11.546;2023-09-08T10:14:50;39.90;35.10
27200;DHT22;14714;48.106;11.546;2023-09-08T10:17:25;39.30;36.40
27200;DHT22;14714;48.106;11.546;2023-09-08T10:20:00;39.20;37.10
27200;DHT22;14714;48.106;11.546;2023-09-08T10:22:38;39.00;37.90
27200;DHT22;14714;48.106;11.546;2023-09-08T10:25:08;39.00;38.80
27200;DHT22;14714;48.106;11.546;2023-09-08T10:27:37;39.10;38.30
27200;DHT22;14714;48.106;11.546;2023-09-08T10:30:07;39.10;38.50
27200;DHT22;14714;48.106;11.546;2023-09-08T10:32:39;39.10;37.80
27200;DHT22;14714;48.106;11.546;2023-09-08T10:35:09;39.00;37.60
27200;DHT22;14714;48.106;11.546;2023-09-08T10:37:38;38.70;38.30
27200;DHT22;14714;48.106;11.546;2023-09-08T10:40:24;38.40;38.60
27200;DHT22;14714;48.106;11.546;2023-09-08T10:43:09;38.10;38.50
27200;DHT22;14714;48.106;11.546;2023-09-08T10:45:36;38.00;39.40
27200;DHT22;14714;48.106;11.546;2023-09-08T10:48:09;37.60;40.10
27200;DHT22;14714;48.106;11.546;2023-09-08T10:50:42;37.30;40.50
27200;DHT22;14714;48.106;11.546;2023-09-08T10:53:17;36.80;40.60
27200;DHT22;14714;48.106;11.546;2023-09-08T10:55:48;35.70;42.70
27200;DHT22;14714;48.106;11.546;2023-09-08T10:58:39;35.00;43.70
27200;DHT22;14714;48.106;11.546;2023-09-08T11:01:20;34.10;45.50
27200;DHT22;14714;48.106;11.546;2023-09-08T11:03:54;33.80;46.70
27200;DHT22;14714;48.106;11.546;2023-09-08T11:06:23;33.60;47.10
27200;DHT22;14714;48.106;11.546;2023-09-08T11:09:06;33.40;48.40
27200;DHT22;14714;48.106;11.546;2023-09-08T11:11:35;33.40;48.00
27200;DHT22;14714;48.106;11.546;2023-09-08T11:14:04;33.40;48.00
27200;DHT22;14714;48.106;11.546;2023-09-08T11:16:33;33.20;48.30
27200;DHT22;14714;48.106;11.546;2023-09-08T11:19:02;32.80;49.20
27200;DHT22;14714;48.106;11.546;2023-09-08T11:21:32;32.60;50.20
27200;DHT22;14714;48.106;11.546;2023-09-08T11:24:08;32.50;50.90
27200;DHT22;14714;48.106;11.546;2023-09-08T11:26:37;32.40;50.70
27200;DHT22;14714;48.106;11.546;2023-09-08T11:29:05;31.90;50.90
27200;DHT22;14714;48.106;11.546;2023-09-08T11:31:34;31.40;52.10
27200;DHT22;14714;48.106;11.546;2023-09-08T11:34:04;30.70;53.60
27200;DHT22;14714;48.106;11.546;2023-09-08T11:36:34;30.60;53.80
27200;DHT22;14714;48.106;11.546;2023-09-08T11:39:04;30.30;54.50
27200;DHT22;14714;48.106;11.546;2023-09-08T11:41:34;30.00;54.80
27200;DHT22;14714;48.106;11.546;2023-09-08T11:44:17;29.80;55.40
27200;DHT22;14714;48.106;11.546;2023-09-08T11:46:47;29.70;55.60
27200;DHT22;14714;48.106;11.546;2023-09-08T11:49:19;29.70;55.70
27200;DHT22;14714;48.106;11.546;2023-09-08T11:51:48;29.60;55.90
27200;DHT22;14714;48.106;11.546;2023-09-08T11:54:17;29.50;56.20
27200;DHT22;14714;48.106;11.546;2023-09-08T11:56:46;29.40;57.50
27200;DHT22;14714;48.106;11.546;2023-09-08T11:59:18;29.30;57.70
27200;DHT22;14714;48.106;11.546;2023-09-08T12:01:46;29.20;58.70
27200;DHT22;14714;48.106;11.546;2023-09-08T12:04:20;29.10;58.30
27200;DHT22;14714;48.106;11.546;2023-09-08T12:06:49;29.00;58.90
27200;DHT22;14714;48.106;11.546;2023-09-08T12:09:20;28.90;59.00
27200;DHT22;14714;48.106;11.546;2023-09-08T12:11:48;28.70;59.70
27200;DHT22;14714;48.106;11.546;2023-09-08T12:14:17;28.50;59.70
27200;DHT22;14714;48.106;11.546;2023-09-08T12:16:45;28.20;60.40
27200;DHT22;14714;48.106;11.546;2023-09-08T12:19:30;28.00;61.50
27200;DHT22;14714;48.106;11.546;2023-09-08T12:22:02;27.90;62.40
27200;DHT22;14714;48.106;11.546;2023-09-08T12:24:55;27.80;62.20
27200;DHT22;14714;48.106;11.546;2023-09-08T12:27:36;27.70;62.60
27200;DHT22;14714;48.106;11.546;2023-09-08T12:30:06;27.60;63.30
27200;DHT22;14714;48.106;11.546;2023-09-08T12:32:38;27.60;63.30
27200;DHT22;14714;48.106;11.546;2023-09-08T12:35:07;27.50;64.00
27200;DHT22;14714;48.106;11.546;2023-09-08T12:37:51;27.40;65.00
27200;DHT22;14714;48.106;11.546;2023-09-08T12:40:20;27.40;65.40
27200;DHT22;14714;48.106;11.546;2023-09-08T12:42:48;27.40;65.30
27200;DHT22;14714;48.106;11.546;2023-09-08T12:45:22;27.30;65.60
27200;DHT22;14714;48.106;11.546;2023-09-08T12:47:52;27.20;65.60
27200;DHT22;14714;48.106;11.546;2023-09-08T12:50:19;27.10;66.00
27200;DHT22;14714;48.106;11.546;2023-09-08T12:52:46;27.10;66.30
27200;DHT22;14714;48.106;11.546;2023-09-08T12:55:13;27.10;66.20
27200;DHT22;14714;48.106;11.546;2023-09-08T12:57:39;27.10;66.90
27200;DHT22;14714;48.106;11.546;2023-09-08T13:00:07;27.10;66.80
27200;DHT22;14714;48.106;11.546;2023-09-08T13:02:34;27.00;67.20
27200;DHT22;14714;48.106;11.546;2023-09-08T13:05:02;27.00;66.50
27200;DHT22;14714;48.106;11.546;2023-09-08T13:07:29;27.00;67.30
27200;DHT22;14714;48.106;11.546;2023-09-08T13:09:56;26.90;66.90
27200;DHT22;14714;48.106;11.546;2023-09-08T13:12:23;26.90;67.10
27200;DHT22;14714;48.106;11.546;2023-09-08T13:14:50;26.90;66.70
27200;DHT22;14714;48.106;11.546;2023-09-08T13:17:16;26.80;66.70
27200;DHT22;14714;48.106;11.546;2023-09-08T13:19:47;26.80;67.50
27200;DHT22;14714;48.106;11.546;2023-09-08T13:22:13;26.80;67.80
27200;DHT22;14714;48.106;11.546;2023-09-08T13:24:40;26.70;68.10
27200;DHT22;14714;48.106;11.546;2023-09-08T13:27:07;26.70;67.90
27200;DHT22;14714;48.106;11.546;2023-09-08T13:29:34;26.70;68.40
27200;DHT22;14714;48.106;11.546;2023-09-08T13:32:01;26.70;68.20
27200;DHT22;14714;48.106;11.546;2023-09-08T13:34:28;26.60;68.60
27200;DHT22;14714;48.106;11.546;2023-09-08T13:36:55;26.60;68.60
27200;DHT22;14714;48.106;11.546;2023-09-08T13:39:22;26.60;68.50
27200;DHT22;14714;48.106;11.546;2023-09-08T13:41:52;26.60;68.60
27200;DHT22;14714;48.106;11.546;2023-09-08T13:44:20;26.70;69.10
27200;DHT22;14714;48.106;11.546;2023-09-08T13:46:52;26.70;69.50
27200;DHT22;14714;48.106;11.546;2023-09-08T13:49:21;26.70;69.10
27200;DHT22;14714;48.106;11.546;2023-09-08T13:51:49;26.70;69.10
27200;DHT22;14714;48.106;11.546;2023-09-08T13:54:21;26.70;69.30
27200;DHT22;14714;48.106;11.546;2023-09-08T13:56:58;26.60;68.20
27200;DHT22;14714;48.106;11.546;2023-09-08T13:59:28;26.70;69.30
27200;DHT22;14714;48.106;11.546;2023-09-08T14:02:01;26.60;68.90
27200;DHT22;14714;48.106;11.546;2023-09-08T14:04:50;26.60;69.80
27200;DHT22;14714;48.106;11.546;2023-09-08T14:07:20;26.60;69.90
27200;DHT22;14714;48.106;11.546;2023-09-08T14:09:49;26.60;69.90
27200;DHT22;14714;48.106;11.546;2023-09-08T14:12:28;26.60;68.50
27200;DHT22;14714;48.106;11.546;2023-09-08T14:15:01;26.60;69.40
27200;DHT22;14714;48.106;11.546;2023-09-08T14:17:28;26.70;69.20
27200;DHT22;14714;48.106;11.546;2023-09-08T14:19:55;26.60;67.50
27200;DHT22;14714;48.106;11.546;2023-09-08T14:22:22;26.60;67.30
27200;DHT22;14714;48.106;11.546;2023-09-08T14:24:49;26.60;67.30
27200;DHT22;14714;48.106;11.546;2023-09-08T14:27:16;26.60;69.30
27200;DHT22;14714;48.106;11.546;2023-09-08T14:29:43;26.60;67.90
27200;DHT22;14714;48.106;11.546;2023-09-08T14:32:10;26.60;68.20
27200;DHT22;14714;48.106;11.546;2023-09-08T14:34:37;26.60;68.30
27200;DHT22;14714;48.106;11.546;2023-09-08T14:37:03;26.60;68.70
27200;DHT22;14714;48.106;11.546;2023-09-08T14:39:32;26.60;68.90
27200;DHT22;14714;48.106;11.546;2023-09-08T14:41:59;26.60;68.90
27200;DHT22;14714;48.106;11.546;2023-09-08T14:44:26;26.60;69.00
27200;DHT22;14714;48.106;11.546;2023-09-08T14:46:53;26.60;69.60
27200;DHT22;14714;48.106;11.546;2023-09-08T14:49:20;26.60;68.80
27200;DHT22;14714;48.106;11.546;2023-09-08T14:51:47;26.60;72.70
27200;DHT22;14714;48.106;11.546;2023-09-08T14:54:13;26.70;71.00
27200;DHT22;14714;48.106;11.546;2023-09-08T14:56:40;26.70;72.10
27200;DHT22;14714;48.106;11.546;2023-09-08T14:59:08;26.70;70.70
27200;DHT22;14714;48.106;11.546;2023-09-08T15:01:35;26.70;70.00
27200;DHT22;14714;48.106;11.546;2023-09-08T15:04:02;26.70;70.40
27200;DHT22;14714;48.106;11.546;2023-09-08T15:06:29;26.70;70.70
27200;DHT22;14714;48.106;11.546;2023-09-08T15:08:56;26.70;71.10
27200;DHT22;14714;48.106;11.546;2023-09-08T15:11:23;26.60;70.30
27200;DHT22;14714;48.106;11.546;2023-09-08T15:13:50;26.70;70.60
27200;DHT22;14714;48.106;11.546;2023-09-08T15:16:17;26.60;70.30
27200;DHT22;14714;48.106;11.546;2023-09-08T15:18:44;26.60;69.90
27200;DHT22;14714;48.106;11.546;2023-09-08T15:21:11;26.60;70.40
27200;DHT22;14714;48.106;11.546;2023-09-08T15:23:37;26.60;70.60
27200;DHT22;14714;48.106;11.546;2023-09-08T15:26:05;26.50;70.50
27200;DHT22;14714;48.106;11.546;2023-09-08T15:28:31;26.50;70.80
27200;DHT22;14714;48.106;11.546;2023-09-08T15:30:59;26.50;71.50
27200;DHT22;14714;48.106;11.546;2023-09-08T15:33:26;26.40;71.40
27200;DHT22;14714;48.106;11.546;2023-09-08T15:35:53;26.40;71.90
27200;DHT22;14714;48.106;11.546;2023-09-08T15:38:23;26.40;71.80
27200;DHT22;14714;48.106;11.546;2023-09-08T15:43:39;26.30;72.00